sensor_id;sensor_type;location;lat;lon;timestamp;P1;durP1;ratioP1;P2;durP2;ratioP2
12719;SDS011;6424;48.520;11.228;2022-09-01T00:01:58;20.47;;;18.20;;
12719;SDS011;6424;48.520;11.228;2022-09-01T00:04:39;20.67;;;18.70;;
12719;SDS011;6424;48.520;11.228;2022-09-01T00:07:23;20.57;;;18.50;;
12719;SDS011;6424;48.520;11.228;2022-09-01T00:10:09;22.07;;;19.87;;
12719;SDS011;6424;48.520;11.228;2022-09-01T00:12:50;20.83;;;18.83;;
12719;SDS011;6424;48.520;11.228;2022-09-01T00:15:30;21.20;;;18.57;;
12719;SDS011;6424;48.520;11.228;2022-09-01T00:18:12;20.40;;;18.57;;
12719;SDS011;6424;48.520;11.228;2022-09-01T00:20:40;20.40;;;18.20;;
12719;SDS011;6424;48.520;11.228;2022-09-01T00:23:20;21.97;;;19.87;;
12719;SDS011;6424;48.520;11.228;2022-09-01T00:26:01;21.80;;;19.50;;
12719;SDS011;6424;48.520;11.228;2022-09-01T00:28:43;22.07;;;19.67;;
12719;SDS011;6424;48.520;11.228;2022-09-01T00:31:24;22.63;;;20.00;;
12719;SDS011;6424;48.520;11.228;2022-09-01T00:34:04;22.87;;;20.70;;
12719;SDS011;6424;48.520;11.228;2022-09-01T00:36:46;22.87;;;20.57;;
12719;SDS011;6424;48.520;11.228;2022-09-01T00:39:27;21.67;;;19.50;;
12719;SDS011;6424;48.520;11.228;2022-09-01T00:41:53;23.60;;;21.00;;
12719;SDS011;6424;48.520;11.228;2022-09-01T00:44:33;21.77;;;19.47;;
12719;SDS011;6424;48.520;11.228;2022-09-01T00:47:15;21.13;;;18.97;;
12719;SDS011;6424;48.520;11.228;2022-09-01T00:49:56;22.43;;;20.20;;
12719;SDS011;6424;48.520;11.228;2022-09-01T00:52:39;21.50;;;19.30;;
12719;SDS011;6424;48.520;11.228;2022-09-01T00:55:24;20.50;;;18.40;;
12719;SDS011;6424;48.520;11.228;2022-09-01T00:57:53;21.27;;;19.03;;
12719;SDS011;6424;48.520;11.228;2022-09-01T01:00:36;20.87;;;18.77;;
12719;SDS011;6424;48.520;11.228;2022-09-01T01:03:20;19.17;;;17.27;;
12719;SDS011;6424;48.520;11.228;2022-09-01T01:06:04;20.03;;;18.13;;
12719;SDS011;6424;48.520;11.228;2022-09-01T01:08:47;21.07;;;18.47;;
12719;SDS011;6424;48.520;11.228;2022-09-01T01:11:36;21.53;;;19.40;;
12719;SDS011;6424;48.520;11.228;2022-09-01T01:14:17;21.60;;;19.40;;
12719;SDS011;6424;48.520;11.228;2022-09-01T01:16:59;21.10;;;18.87;;
12719;SDS011;6424;48.520;11.228;2022-09-01T01:19:50;21.53;;;19.43;;
12719;SDS011;6424;48.520;11.228;2022-09-01T01:23:05;21.90;;;19.80;;
12719;SDS011;6424;48.520;11.228;2022-09-01T01:26:00;22.30;;;20.03;;
12719;SDS011;6424;48.520;11.228;2022-09-01T01:28:41;21.57;;;19.37;;
12719;SDS011;6424;48.520;11.228;2022-09-01T01:31:23;22.07;;;19.70;;
12719;SDS011;6424;48.520;11.228;2022-09-01T01:34:04;21.17;;;19.07;;
12719;SDS011;6424;48.520;11.228;2022-09-01T01:36:47;21.57;;;19.57;;
12719;SDS011;6424;48.520;11.228;2022-09-01T01:39:28;22.07;;;19.87;;
12719;SDS011;6424;48.520;11.228;2022-09-01T01:42:09;22.13;;;20.03;;
12719;SDS011;6424;48.520;11.228;2022-09-01T01:44:51;22.13;;;19.87;;
12719;SDS011;6424;48.520;11.228;2022-09-01T01:47:33;22.57;;;20.37;;
12719;SDS011;6424;48.520;11.228;2022-09-01T01:50:14;22.63;;;20.23;;
12719;SDS011;6424;48.520;11.228;2022-09-01T01:52:55;21.77;;;19.57;;
12719;SDS011;6424;48.520;11.228;2022-09-01T01:55:39;23.40;;;21.10;;
12719;SDS011;6424;48.520;11.228;2022-09-01T01:58:21;23.17;;;20.70;;
12719;SDS011;6424;48.520;11.228;2022-09-01T02:01:03;25.60;;;22.90;;
12719;SDS011;6424;48.520;11.228;2022-09-01T02:03:46;23.23;;;21.03;;
12719;SDS011;6424;48.520;11.228;2022-09-01T02:06:27;25.47;;;22.70;;
12719;SDS011;6424;48.520;11.228;2022-09-01T02:09:08;21.93;;;19.63;;
12719;SDS011;6424;48.520;11.228;2022-09-01T02:11:49;23.47;;;21.07;;
12719;SDS011;6424;48.520;11.228;2022-09-01T02:14:34;21.00;;;18.87;;
12719;SDS011;6424;48.520;11.228;2022-09-01T02:17:15;21.77;;;19.43;;
12719;SDS011;6424;48.520;11.228;2022-09-01T02:19:56;23.43;;;19.30;;
12719;SDS011;6424;48.520;11.228;2022-09-01T02:22:37;19.60;;;17.60;;
12719;SDS011;6424;48.520;11.228;2022-09-01T02:25:04;21.93;;;19.80;;
12719;SDS011;6424;48.520;11.228;2022-09-01T02:27:45;22.10;;;19.80;;
12719;SDS011;6424;48.520;11.228;2022-09-01T02:30:15;21.60;;;19.33;;
12719;SDS011;6424;48.520;11.228;2022-09-01T02:32:55;20.93;;;18.80;;
12719;SDS011;6424;48.520;11.228;2022-09-01T02:35:22;21.83;;;19.67;;
12719;SDS011;6424;48.520;11.228;2022-09-01T02:38:06;21.90;;;19.60;;
12719;SDS011;6424;48.520;11.228;2022-09-01T02:40:47;19.60;;;17.60;;
12719;SDS011;6424;48.520;11.228;2022-09-01T02:43:29;20.87;;;18.80;;
12719;SDS011;6424;48.520;11.228;2022-09-01T02:46:11;22.10;;;19.60;;
12719;SDS011;6424;48.520;11.228;2022-09-01T02:48:54;19.87;;;17.87;;
12719;SDS011;6424;48.520;11.228;2022-09-01T02:51:35;21.90;;;19.80;;
12719;SDS011;6424;48.520;11.228;2022-09-01T02:54:16;21.90;;;19.53;;
12719;SDS011;6424;48.520;11.228;2022-09-01T02:56:58;22.10;;;19.90;;
12719;SDS011;6424;48.520;11.228;2022-09-01T02:59:39;24.13;;;21.53;;
12719;SDS011;6424;48.520;11.228;2022-09-01T03:02:21;22.97;;;20.67;;
12719;SDS011;6424;48.520;11.228;2022-09-01T03:05:02;24.70;;;20.30;;
12719;SDS011;6424;48.520;11.228;2022-09-01T03:07:44;23.20;;;20.90;;
12719;SDS011;6424;48.520;11.228;2022-09-01T03:10:27;21.47;;;19.40;;
12719;SDS011;6424;48.520;11.228;2022-09-01T03:13:04;22.60;;;20.37;;
12719;SDS011;6424;48.520;11.228;2022-09-01T03:15:49;22.07;;;19.87;;
12719;SDS011;6424;48.520;11.228;2022-09-01T03:18:30;21.97;;;19.87;;
12719;SDS011;6424;48.520;11.228;2022-09-01T03:21:12;22.53;;;20.33;;
12719;SDS011;6424;48.520;11.228;2022-09-01T03:23:56;21.83;;;19.70;;
12719;SDS011;6424;48.520;11.228;2022-09-01T03:26:26;22.50;;;20.20;;
12719;SDS011;6424;48.520;11.228;2022-09-01T03:28:51;22.07;;;19.87;;
12719;SDS011;6424;48.520;11.228;2022-09-01T03:31:32;22.70;;;20.40;;
12719;SDS011;6424;48.520;11.228;2022-09-01T03:34:14;24.87;;;22.27;;
12719;SDS011;6424;48.520;11.228;2022-09-01T03:36:56;23.33;;;20.93;;
12719;SDS011;6424;48.520;11.228;2022-09-01T03:39:37;22.97;;;20.73;;
12719;SDS011;6424;48.520;11.228;2022-09-01T03:42:18;23.83;;;21.43;;
12719;SDS011;6424;48.520;11.228;2022-09-01T03:45:02;24.70;;;22.30;;
12719;SDS011;6424;48.520;11.228;2022-09-01T03:47:48;24.53;;;22.17;;
12719;SDS011;6424;48.520;11.228;2022-09-01T03:50:29;23.93;;;21.53;;
12719;SDS011;6424;48.520;11.228;2022-09-01T03:53:12;24.97;;;22.37;;
12719;SDS011;6424;48.520;11.228;2022-09-01T03:55:55;24.43;;;21.83;;
12719;SDS011;6424;48.520;11.228;2022-09-01T03:58:22;27.87;;;22.60;;
12719;SDS011;6424;48.520;11.228;2022-09-01T04:01:03;24.13;;;21.73;;
12719;SDS011;6424;48.520;11.228;2022-09-01T04:03:44;23.93;;;21.57;;
12719;SDS011;6424;48.520;11.228;2022-09-01T04:06:26;24.30;;;21.70;;
12719;SDS011;6424;48.520;11.228;2022-09-01T04:08:54;23.80;;;21.47;;
12719;SDS011;6424;48.520;11.228;2022-09-01T04:11:41;25.37;;;22.77;;
12719;SDS011;6424;48.520;11.228;2022-09-01T04:14:25;24.17;;;21.77;;
12719;SDS011;6424;48.520;11.228;2022-09-01T04:17:06;24.83;;;22.33;;
12719;SDS011;6424;48.520;11.228;2022-09-01T04:20:06;25.27;;;22.70;;
12719;SDS011;6424;48.520;11.228;2022-09-01T04:22:33;26.60;;;23.70;;
12719;SDS011;6424;48.520;11.228;2022-09-01T04:25:18;25.97;;;23.43;;
12719;SDS011;6424;48.520;11.228;2022-09-01T04:28:02;25.53;;;22.93;;
12719;SDS011;6424;48.520;11.228;2022-09-01T04:30:53;25.57;;;22.83;;
12719;SDS011;6424;48.520;11.228;2022-09-01T04:33:36;25.60;;;22.90;;
12719;SDS011;6424;48.520;11.228;2022-09-01T04:36:20;26.80;;;23.97;;
12719;SDS011;6424;48.520;11.228;2022-09-01T04:39:10;27.07;;;23.73;;
12719;SDS011;6424;48.520;11.228;2022-09-01T04:41:52;25.20;;;22.73;;
12719;SDS011;6424;48.520;11.228;2022-09-01T04:44:33;27.90;;;24.93;;
12719;SDS011;6424;48.520;11.228;2022-09-01T04:46:59;26.33;;;23.63;;
12719;SDS011;6424;48.520;11.228;2022-09-01T04:49:40;25.93;;;23.27;;
12719;SDS011;6424;48.520;11.228;2022-09-01T04:52:22;23.83;;;21.20;;
12719;SDS011;6424;48.520;11.228;2022-09-01T04:55:03;24.67;;;22.17;;
12719;SDS011;6424;48.520;11.228;2022-09-01T04:57:45;24.43;;;22.03;;
12719;SDS011;6424;48.520;11.228;2022-09-01T05:00:29;24.93;;;22.43;;
12719;SDS011;6424;48.520;11.228;2022-09-01T05:02:58;25.60;;;22.37;;
12719;SDS011;6424;48.520;11.228;2022-09-01T05:05:43;23.13;;;20.83;;
12719;SDS011;6424;48.520;11.228;2022-09-01T05:08:24;22.83;;;20.50;;
12719;SDS011;6424;48.520;11.228;2022-09-01T05:11:05;26.90;;;24.20;;
12719;SDS011;6424;48.520;11.228;2022-09-01T05:13:47;23.57;;;21.13;;
12719;SDS011;6424;48.520;11.228;2022-09-01T05:16:28;23.37;;;20.97;;
12719;SDS011;6424;48.520;11.228;2022-09-01T05:19:09;24.10;;;21.60;;
12719;SDS011;6424;48.520;11.228;2022-09-01T05:21:53;26.47;;;23.77;;
12719;SDS011;6424;48.520;11.228;2022-09-01T05:24:37;24.57;;;21.97;;
12719;SDS011;6424;48.520;11.228;2022-09-01T05:27:04;27.67;;;24.40;;
12719;SDS011;6424;48.520;11.228;2022-09-01T05:29:45;25.97;;;23.47;;
12719;SDS011;6424;48.520;11.228;2022-09-01T05:32:29;25.87;;;23.30;;
12719;SDS011;6424;48.520;11.228;2022-09-01T05:35:12;24.27;;;21.87;;
12719;SDS011;6424;48.520;11.228;2022-09-01T05:37:54;25.87;;;23.13;;
12719;SDS011;6424;48.520;11.228;2022-09-01T05:40:34;26.07;;;23.50;;
12719;SDS011;6424;48.520;11.228;2022-09-01T05:43:05;24.77;;;22.37;;
12719;SDS011;6424;48.520;11.228;2022-09-01T05:45:57;26.93;;;24.03;;
12719;SDS011;6424;48.520;11.228;2022-09-01T05:48:23;26.97;;;24.23;;
12719;SDS011;6424;48.520;11.228;2022-09-01T05:50:49;24.27;;;21.77;;
12719;SDS011;6424;48.520;11.228;2022-09-01T05:53:35;24.80;;;22.40;;
12719;SDS011;6424;48.520;11.228;2022-09-01T05:56:17;25.80;;;23.30;;
12719;SDS011;6424;48.520;11.228;2022-09-01T05:58:59;27.63;;;24.93;;
12719;SDS011;6424;48.520;11.228;2022-09-01T06:01:41;29.13;;;26.23;;
12719;SDS011;6424;48.520;11.228;2022-09-01T06:04:22;27.67;;;24.83;;
12719;SDS011;6424;48.520;11.228;2022-09-01T06:07:04;27.57;;;24.63;;
12719;SDS011;6424;48.520;11.228;2022-09-01T06:09:47;27.23;;;24.33;;
12719;SDS011;6424;48.520;11.228;2022-09-01T06:12:14;25.83;;;23.17;;
12719;SDS011;6424;48.520;11.228;2022-09-01T06:15:03;27.40;;;24.73;;
12719;SDS011;6424;48.520;11.228;2022-09-01T06:17:46;28.60;;;25.50;;
12719;SDS011;6424;48.520;11.228;2022-09-01T06:20:27;26.83;;;24.07;;
12719;SDS011;6424;48.520;11.228;2022-09-01T06:23:09;27.83;;;24.93;;
12719;SDS011;6424;48.520;11.228;2022-09-01T06:25:54;27.63;;;24.73;;
12719;SDS011;6424;48.520;11.228;2022-09-01T06:28:35;28.50;;;25.53;;
12719;SDS011;6424;48.520;11.228;2022-09-01T06:31:24;28.37;;;25.47;;
12719;SDS011;6424;48.520;11.228;2022-09-01T06:34:06;27.60;;;24.70;;
12719;SDS011;6424;48.520;11.228;2022-09-01T06:36:48;26.40;;;23.70;;
12719;SDS011;6424;48.520;11.228;2022-09-01T06:39:30;25.73;;;23.13;;
12719;SDS011;6424;48.520;11.228;2022-09-01T06:41:58;26.50;;;23.70;;
12719;SDS011;6424;48.520;11.228;2022-09-01T06:44:40;24.10;;;21.80;;
12719;SDS011;6424;48.520;11.228;2022-09-01T06:47:20;23.10;;;20.90;;
12719;SDS011;6424;48.520;11.228;2022-09-01T06:49:46;22.77;;;20.47;;
12719;SDS011;6424;48.520;11.228;2022-09-01T06:52:27;23.37;;;20.87;;
12719;SDS011;6424;48.520;11.228;2022-09-01T06:54:53;20.00;;;18.20;;
12719;SDS011;6424;48.520;11.228;2022-09-01T06:57:35;21.27;;;19.13;;
12719;SDS011;6424;48.520;11.228;2022-09-01T07:00:16;20.30;;;18.30;;
12719;SDS011;6424;48.520;11.228;2022-09-01T07:02:59;19.50;;;17.50;;
12719;SDS011;6424;48.520;11.228;2022-09-01T07:05:48;18.63;;;16.80;;
12719;SDS011;6424;48.520;11.228;2022-09-01T07:08:15;18.50;;;16.53;;
12719;SDS011;6424;48.520;11.228;2022-09-01T07:11:01;17.73;;;16.07;;
12719;SDS011;6424;48.520;11.228;2022-09-01T07:13:31;17.77;;;16.07;;
12719;SDS011;6424;48.520;11.228;2022-09-01T07:16:00;16.60;;;14.97;;
12719;SDS011;6424;48.520;11.228;2022-09-01T07:18:43;18.20;;;16.50;;
12719;SDS011;6424;48.520;11.228;2022-09-01T07:21:24;18.73;;;16.80;;
12719;SDS011;6424;48.520;11.228;2022-09-01T07:24:06;18.17;;;16.37;;
12719;SDS011;6424;48.520;11.228;2022-09-01T07:26:47;16.50;;;15.00;;
12719;SDS011;6424;48.520;11.228;2022-09-01T07:29:29;16.97;;;15.47;;
12719;SDS011;6424;48.520;11.228;2022-09-01T07:32:12;17.30;;;15.80;;
12719;SDS011;6424;48.520;11.228;2022-09-01T07:34:57;17.17;;;15.57;;
12719;SDS011;6424;48.520;11.228;2022-09-01T07:37:37;15.63;;;14.07;;
12719;SDS011;6424;48.520;11.228;2022-09-01T07:40:18;16.57;;;15.00;;
12719;SDS011;6424;48.520;11.228;2022-09-01T07:42:46;16.63;;;14.93;;
12719;SDS011;6424;48.520;11.228;2022-09-01T07:45:28;16.80;;;15.30;;
12719;SDS011;6424;48.520;11.228;2022-09-01T07:48:09;16.23;;;14.67;;
12719;SDS011;6424;48.520;11.228;2022-09-01T07:50:35;15.87;;;14.23;;
12719;SDS011;6424;48.520;11.228;2022-09-01T07:53:21;13.67;;;12.47;;
12719;SDS011;6424;48.520;11.228;2022-09-01T07:56:08;14.53;;;13.23;;
12719;SDS011;6424;48.520;11.228;2022-09-01T07:58:50;14.37;;;13.07;;
12719;SDS011;6424;48.520;11.228;2022-09-01T08:01:31;15.13;;;13.57;;
12719;SDS011;6424;48.520;11.228;2022-09-01T08:04:13;15.47;;;14.07;;
12719;SDS011;6424;48.520;11.228;2022-09-01T08:06:54;16.23;;;14.63;;
12719;SDS011;6424;48.520;11.228;2022-09-01T08:09:35;16.83;;;15.20;;
12719;SDS011;6424;48.520;11.228;2022-09-01T08:12:17;15.80;;;14.20;;
12719;SDS011;6424;48.520;11.228;2022-09-01T08:14:58;16.00;;;14.50;;
12719;SDS011;6424;48.520;11.228;2022-09-01T08:17:44;16.33;;;14.73;;
12719;SDS011;6424;48.520;11.228;2022-09-01T08:20:26;14.90;;;13.60;;
12719;SDS011;6424;48.520;11.228;2022-09-01T08:22:52;15.17;;;13.77;;
12719;SDS011;6424;48.520;11.228;2022-09-01T08:25:33;15.20;;;13.80;;
12719;SDS011;6424;48.520;11.228;2022-09-01T08:28:15;14.77;;;13.37;;
12719;SDS011;6424;48.520;11.228;2022-09-01T08:30:56;13.50;;;12.30;;
12719;SDS011;6424;48.520;11.228;2022-09-01T08:33:39;12.97;;;11.77;;
12719;SDS011;6424;48.520;11.228;2022-09-01T08:36:21;13.13;;;11.97;;
12719;SDS011;6424;48.520;11.228;2022-09-01T08:39:02;13.43;;;12.07;;
12719;SDS011;6424;48.520;11.228;2022-09-01T08:41:44;12.50;;;11.30;;
12719;SDS011;6424;48.520;11.228;2022-09-01T08:44:38;11.20;;;10.20;;
12719;SDS011;6424;48.520;11.228;2022-09-01T08:47:11;11.07;;;10.10;;
12719;SDS011;6424;48.520;11.228;2022-09-01T08:49:43;10.30;;;9.40;;
12719;SDS011;6424;48.520;11.228;2022-09-01T08:58:06;10.07;;;9.20;;
12719;SDS011;6424;48.520;11.228;2022-09-01T09:00:55;9.70;;;8.80;;
12719;SDS011;6424;48.520;11.228;2022-09-01T09:03:42;10.83;;;9.83;;
12719;SDS011;6424;48.520;11.228;2022-09-01T09:09:07;10.20;;;9.30;;
12719;SDS011;6424;48.520;11.228;2022-09-01T09:14:56;9.67;;;8.73;;
12719;SDS011;6424;48.520;11.228;2022-09-01T09:17:50;9.60;;;8.63;;
12719;SDS011;6424;48.520;11.228;2022-09-01T09:20:39;9.93;;;9.03;;
12719;SDS011;6424;48.520;11.228;2022-09-01T09:23:29;9.13;;;8.33;;
12719;SDS011;6424;48.520;11.228;2022-09-01T09:26:13;9.97;;;9.17;;
12719;SDS011;6424;48.520;11.228;2022-09-01T09:28:54;9.03;;;8.33;;
12719;SDS011;6424;48.520;11.228;2022-09-01T09:31:36;9.40;;;8.50;;
12719;SDS011;6424;48.520;11.228;2022-09-01T09:34:33;8.80;;;8.03;;
12719;SDS011;6424;48.520;11.228;2022-09-01T09:37:26;8.43;;;7.63;;
12719;SDS011;6424;48.520;11.228;2022-09-01T09:40:01;9.07;;;8.27;;
12719;SDS011;6424;48.520;11.228;2022-09-01T09:45:37;7.70;;;7.10;;
12719;SDS011;6424;48.520;11.228;2022-09-01T09:48:27;8.27;;;7.47;;
12719;SDS011;6424;48.520;11.228;2022-09-01T09:51:18;7.67;;;7.07;;
12719;SDS011;6424;48.520;11.228;2022-09-01T09:54:13;7.97;;;7.37;;
12719;SDS011;6424;48.520;11.228;2022-09-01T10:02:51;7.13;;;6.53;;
12719;SDS011;6424;48.520;11.228;2022-09-01T10:05:42;6.83;;;6.20;;
12719;SDS011;6424;48.520;11.228;2022-09-01T10:08:11;7.10;;;6.47;;
12719;SDS011;6424;48.520;11.228;2022-09-01T10:11:05;8.20;;;6.33;;
12719;SDS011;6424;48.520;11.228;2022-09-01T10:13:46;7.30;;;6.60;;
12719;SDS011;6424;48.520;11.228;2022-09-01T10:16:27;6.07;;;5.57;;
12719;SDS011;6424;48.520;11.228;2022-09-01T10:19:12;6.27;;;5.77;;
12719;SDS011;6424;48.520;11.228;2022-09-01T10:21:53;5.50;;;5.00;;
12719;SDS011;6424;48.520;11.228;2022-09-01T10:24:35;5.60;;;5.10;;
12719;SDS011;6424;48.520;11.228;2022-09-01T10:27:22;7.63;;;5.07;;
12719;SDS011;6424;48.520;11.228;2022-09-01T10:30:10;5.97;;;5.43;;
12719;SDS011;6424;48.520;11.228;2022-09-01T10:32:55;6.43;;;5.83;;
12719;SDS011;6424;48.520;11.228;2022-09-01T10:35:26;5.70;;;5.20;;
12719;SDS011;6424;48.520;11.228;2022-09-01T10:38:14;5.47;;;5.07;;
12719;SDS011;6424;48.520;11.228;2022-09-01T10:40:58;6.03;;;5.53;;
12719;SDS011;6424;48.520;11.228;2022-09-01T10:46:40;5.20;;;4.80;;
12719;SDS011;6424;48.520;11.228;2022-09-01T10:52:10;5.50;;;5.00;;
12719;SDS011;6424;48.520;11.228;2022-09-01T11:04:23;4.63;;;3.93;;
12719;SDS011;6424;48.520;11.228;2022-09-01T11:15:54;5.93;;;5.43;;
12719;SDS011;6424;48.520;11.228;2022-09-01T11:18:35;7.70;;;6.23;;
12719;SDS011;6424;48.520;11.228;2022-09-01T11:21:29;6.73;;;6.13;;
12719;SDS011;6424;48.520;11.228;2022-09-01T11:30:15;5.67;;;5.17;;
12719;SDS011;6424;48.520;11.228;2022-09-01T11:33:43;5.63;;;5.10;;
12719;SDS011;6424;48.520;11.228;2022-09-01T11:36:02;6.13;;;4.50;;
12719;SDS011;6424;48.520;11.228;2022-09-01T11:38:53;4.10;;;3.70;;
12719;SDS011;6424;48.520;11.228;2022-09-01T11:48:05;3.20;;;3.00;;
12719;SDS011;6424;48.520;11.228;2022-09-01T11:51:00;3.37;;;3.00;;
12719;SDS011;6424;48.520;11.228;2022-09-01T11:53:43;4.23;;;3.93;;
12719;SDS011;6424;48.520;11.228;2022-09-01T11:56:24;4.83;;;4.10;;
12719;SDS011;6424;48.520;11.228;2022-09-01T11:59:06;4.33;;;3.93;;
12719;SDS011;6424;48.520;11.228;2022-09-01T12:01:47;3.13;;;2.90;;
12719;SDS011;6424;48.520;11.228;2022-09-01T12:04:35;3.27;;;2.97;;
12719;SDS011;6424;48.520;11.228;2022-09-01T12:07:24;3.13;;;2.60;;
12719;SDS011;6424;48.520;11.228;2022-09-01T12:10:20;3.30;;;3.00;;
12719;SDS011;6424;48.520;11.228;2022-09-01T12:15:56;2.83;;;2.63;;
12719;SDS011;6424;48.520;11.228;2022-09-01T12:18:45;6.07;;;3.23;;
12719;SDS011;6424;48.520;11.228;2022-09-01T12:21:29;3.07;;;2.77;;
12719;SDS011;6424;48.520;11.228;2022-09-01T12:24:22;2.70;;;2.50;;
12719;SDS011;6424;48.520;11.228;2022-09-01T12:27:03;3.23;;;2.97;;
12719;SDS011;6424;48.520;11.228;2022-09-01T12:29:45;3.00;;;2.27;;
12719;SDS011;6424;48.520;11.228;2022-09-01T12:32:11;2.90;;;2.60;;
12719;SDS011;6424;48.520;11.228;2022-09-01T12:35:00;3.20;;;3.00;;
12719;SDS011;6424;48.520;11.228;2022-09-01T12:37:43;3.47;;;3.17;;
12719;SDS011;6424;48.520;11.228;2022-09-01T12:40:29;3.30;;;3.10;;
12719;SDS011;6424;48.520;11.228;2022-09-01T12:43:25;3.27;;;2.97;;
12719;SDS011;6424;48.520;11.228;2022-09-01T12:46:07;2.97;;;2.77;;
12719;SDS011;6424;48.520;11.228;2022-09-01T12:48:35;3.00;;;2.70;;
12719;SDS011;6424;48.520;11.228;2022-09-01T12:51:24;4.13;;;2.90;;
12719;SDS011;6424;48.520;11.228;2022-09-01T12:53:51;3.50;;;3.20;;
12719;SDS011;6424;48.520;11.228;2022-09-01T12:56:35;2.93;;;2.70;;
12719;SDS011;6424;48.520;11.228;2022-09-01T12:59:22;2.73;;;2.20;;
12719;SDS011;6424;48.520;11.228;2022-09-01T13:05:27;3.10;;;2.47;;
12719;SDS011;6424;48.520;11.228;2022-09-01T13:08:15;3.87;;;3.13;;
12719;SDS011;6424;48.520;11.228;2022-09-01T13:11:02;3.17;;;2.87;;
12719;SDS011;6424;48.520;11.228;2022-09-01T13:13:47;5.13;;;2.60;;
12719;SDS011;6424;48.520;11.228;2022-09-01T13:16:28;3.97;;;2.70;;
12719;SDS011;6424;48.520;11.228;2022-09-01T13:19:09;2.80;;;2.60;;
12719;SDS011;6424;48.520;11.228;2022-09-01T13:21:50;3.30;;;2.37;;
12719;SDS011;6424;48.520;11.228;2022-09-01T13:24:31;3.40;;;2.57;;
12719;SDS011;6424;48.520;11.228;2022-09-01T13:27:12;2.20;;;2.00;;
12719;SDS011;6424;48.520;11.228;2022-09-01T13:29:54;4.07;;;2.30;;
12719;SDS011;6424;48.520;11.228;2022-09-01T13:32:35;5.43;;;3.50;;
12719;SDS011;6424;48.520;11.228;2022-09-01T13:35:17;5.73;;;2.73;;
12719;SDS011;6424;48.520;11.228;2022-09-01T13:37:59;2.57;;;2.13;;
12719;SDS011;6424;48.520;11.228;2022-09-01T13:40:40;2.70;;;2.03;;
12719;SDS011;6424;48.520;11.228;2022-09-01T13:43:22;2.60;;;2.33;;
12719;SDS011;6424;48.520;11.228;2022-09-01T13:45:51;2.50;;;2.30;;
12719;SDS011;6424;48.520;11.228;2022-09-01T13:48:32;2.37;;;2.17;;
12719;SDS011;6424;48.520;11.228;2022-09-01T13:51:26;3.53;;;3.23;;
12719;SDS011;6424;48.520;11.228;2022-09-01T13:54:08;3.57;;;2.37;;
12719;SDS011;6424;48.520;11.228;2022-09-01T13:56:49;1.67;;;1.50;;
12719;SDS011;6424;48.520;11.228;2022-09-01T13:59:30;3.50;;;2.10;;
12719;SDS011;6424;48.520;11.228;2022-09-01T14:02:12;3.10;;;2.00;;
12719;SDS011;6424;48.520;11.228;2022-09-01T14:04:52;2.20;;;1.60;;
12719;SDS011;6424;48.520;11.228;2022-09-01T14:07:33;2.30;;;1.70;;
12719;SDS011;6424;48.520;11.228;2022-09-01T14:10:14;1.93;;;1.83;;
12719;SDS011;6424;48.520;11.228;2022-09-01T14:12:42;3.30;;;1.90;;
12719;SDS011;6424;48.520;11.228;2022-09-01T14:15:24;3.23;;;2.17;;
12719;SDS011;6424;48.520;11.228;2022-09-01T14:18:05;3.27;;;2.03;;
12719;SDS011;6424;48.520;11.228;2022-09-01T14:20:47;2.33;;;1.80;;
12719;SDS011;6424;48.520;11.228;2022-09-01T14:23:30;4.23;;;1.70;;
12719;SDS011;6424;48.520;11.228;2022-09-01T14:26:11;2.57;;;2.10;;
12719;SDS011;6424;48.520;11.228;2022-09-01T14:28:54;3.07;;;2.00;;
12719;SDS011;6424;48.520;11.228;2022-09-01T14:31:35;2.17;;;2.00;;
12719;SDS011;6424;48.520;11.228;2022-09-01T14:34:01;2.30;;;2.10;;
12719;SDS011;6424;48.520;11.228;2022-09-01T14:36:43;2.60;;;2.40;;
12719;SDS011;6424;48.520;11.228;2022-09-01T14:39:24;2.17;;;2.00;;
12719;SDS011;6424;48.520;11.228;2022-09-01T14:42:05;2.30;;;2.10;;
12719;SDS011;6424;48.520;11.228;2022-09-01T14:44:51;2.43;;;1.70;;
12719;SDS011;6424;48.520;11.228;2022-09-01T14:47:31;2.10;;;1.90;;
12719;SDS011;6424;48.520;11.228;2022-09-01T14:50:12;3.07;;;2.00;;
12719;SDS011;6424;48.520;11.228;2022-09-01T14:52:55;3.27;;;2.10;;
12719;SDS011;6424;48.520;11.228;2022-09-01T14:55:36;1.87;;;1.53;;
12719;SDS011;6424;48.520;11.228;2022-09-01T14:58:17;3.23;;;2.10;;
12719;SDS011;6424;48.520;11.228;2022-09-01T15:00:58;4.60;;;1.67;;
12719;SDS011;6424;48.520;11.228;2022-09-01T15:03:39;2.93;;;1.80;;
12719;SDS011;6424;48.520;11.228;2022-09-01T15:06:21;1.73;;;1.60;;
12719;SDS011;6424;48.520;11.228;2022-09-01T15:09:02;2.53;;;1.87;;
12719;SDS011;6424;48.520;11.228;2022-09-01T15:11:43;1.80;;;1.70;;
12719;SDS011;6424;48.520;11.228;2022-09-01T15:14:24;1.70;;;1.60;;
12719;SDS011;6424;48.520;11.228;2022-09-01T15:17:05;1.47;;;1.37;;
12719;SDS011;6424;48.520;11.228;2022-09-01T15:19:46;1.80;;;1.60;;
12719;SDS011;6424;48.520;11.228;2022-09-01T15:22:26;2.40;;;1.40;;
12719;SDS011;6424;48.520;11.228;2022-09-01T15:25:07;1.97;;;1.40;;
12719;SDS011;6424;48.520;11.228;2022-09-01T15:27:48;1.73;;;1.50;;
12719;SDS011;6424;48.520;11.228;2022-09-01T15:30:29;2.77;;;1.60;;
12719;SDS011;6424;48.520;11.228;2022-09-01T15:33:11;1.73;;;1.30;;
12719;SDS011;6424;48.520;11.228;2022-09-01T15:35:53;2.50;;;1.53;;
12719;SDS011;6424;48.520;11.228;2022-09-01T15:38:34;1.50;;;1.40;;
12719;SDS011;6424;48.520;11.228;2022-09-01T15:41:22;1.50;;;1.40;;
12719;SDS011;6424;48.520;11.228;2022-09-01T15:43:50;2.37;;;1.50;;
12719;SDS011;6424;48.520;11.228;2022-09-01T15:46:31;1.60;;;1.50;;
12719;SDS011;6424;48.520;11.228;2022-09-01T15:49:13;3.40;;;1.40;;
12719;SDS011;6424;48.520;11.228;2022-09-01T15:51:54;4.67;;;1.80;;
12719;SDS011;6424;48.520;11.228;2022-09-01T15:54:37;1.93;;;1.60;;
12719;SDS011;6424;48.520;11.228;2022-09-01T15:57:18;3.23;;;1.57;;
12719;SDS011;6424;48.520;11.228;2022-09-01T15:59:59;1.73;;;1.63;;
12719;SDS011;6424;48.520;11.228;2022-09-01T16:02:39;3.20;;;1.70;;
12719;SDS011;6424;48.520;11.228;2022-09-01T16:05:21;3.50;;;1.80;;
12719;SDS011;6424;48.520;11.228;2022-09-01T16:08:02;2.23;;;1.90;;
12719;SDS011;6424;48.520;11.228;2022-09-01T16:10:48;2.03;;;1.53;;
12719;SDS011;6424;48.520;11.228;2022-09-01T16:13:29;3.30;;;1.83;;
12719;SDS011;6424;48.520;11.228;2022-09-01T16:25:10;1.73;;;1.40;;
12719;SDS011;6424;48.520;11.228;2022-09-01T16:27:56;4.80;;;1.70;;
12719;SDS011;6424;48.520;11.228;2022-09-01T16:30:44;1.63;;;1.47;;
12719;SDS011;6424;48.520;11.228;2022-09-01T16:33:28;2.07;;;1.57;;
12719;SDS011;6424;48.520;11.228;2022-09-01T16:36:06;2.40;;;1.60;;
12719;SDS011;6424;48.520;11.228;2022-09-01T16:42:08;3.37;;;1.60;;
12719;SDS011;6424;48.520;11.228;2022-09-01T16:51:33;3.13;;;1.60;;
12719;SDS011;6424;48.520;11.228;2022-09-01T16:54:27;3.23;;;1.63;;
12719;SDS011;6424;48.520;11.228;2022-09-01T17:00:07;2.87;;;1.40;;
12719;SDS011;6424;48.520;11.228;2022-09-01T17:03:05;1.93;;;1.40;;
12719;SDS011;6424;48.520;11.228;2022-09-01T17:05:54;2.77;;;1.60;;
12719;SDS011;6424;48.520;11.228;2022-09-01T17:08:49;18.13;;;3.57;;
12719;SDS011;6424;48.520;11.228;2022-09-01T17:11:38;82.57;;;11.33;;
12719;SDS011;6424;48.520;11.228;2022-09-01T17:14:39;38.83;;;7.10;;
12719;SDS011;6424;48.520;11.228;2022-09-01T17:18:11;7.57;;;2.17;;
12719;SDS011;6424;48.520;11.228;2022-09-01T17:20:58;1.60;;;1.50;;
12719;SDS011;6424;48.520;11.228;2022-09-01T17:23:53;3.90;;;1.57;;
12719;SDS011;6424;48.520;11.228;2022-09-01T17:26:44;1.87;;;1.60;;